Time;durP1;ratioP1;P1;durP2;ratioP2;P2;SDS_P1;SDS_P2;PMS_P1;PMS_P2;Temp;Humidity;BMP_temperature;BMP_pressure;BME280_temperature;BME280_humidity;BME280_pressure;Samples;Min_cycle;Max_cycle;Signal;HPM_P1;HPM_P2
2022/03/08 00:01:36;;;;;;;98.60;39.50;;;;;;;-3.28;73.48;99224.57;107707;1282;22538;-76
2022/03/08 00:04:03;;;;;;;96.60;39.50;;;;;;;-3.31;73.33;99226.63;107691;1283;25413;-79
2022/03/08 00:06:30;;;;;;;114.70;44.70;;;;;;;-3.36;73.04;99225.26;107722;1283;22711;-76
2022/03/08 00:08:57;;;;;;;120.20;45.00;;;;;;;-3.42;73.05;99227.14;107686;1282;25353;-76
2022/03/08 00:11:24;;;;;;;117.90;49.00;;;;;;;-3.43;73.02;99230.04;107699;1284;22537;-77
2022/03/08 00:13:51;;;;;;;107.30;44.00;;;;;;;-3.43;73.12;99233.77;107702;1282;24270;-77
2022/03/08 00:16:19;;;;;;;97.00;39.40;;;;;;;-3.44;73.69;99234.29;107696;1284;22557;-77
2022/03/08 00:18:48;;;;;;;103.30;41.40;;;;;;;-3.46;74.25;99233.59;107730;1282;25237;-77
2022/03/08 00:21:17;;;;;;;106.70;41.00;;;;;;;-3.49;73.84;99237.17;107700;1282;22560;-77
2022/03/08 00:23:44;;;;;;;90.40;37.40;;;;;;;-3.52;73.85;99235.14;107661;1284;22562;-76
2022/03/08 00:26:11;;;;;;;91.50;37.70;;;;;;;-3.53;73.71;99237.17;107710;1283;23319;-78
2022/03/08 00:28:38;;;;;;;95.20;38.40;;;;;;;-3.56;73.46;99230.52;107686;1282;22590;-77
2022/03/08 00:31:05;;;;;;;83.60;34.60;;;;;;;-3.59;73.51;99231.39;107715;1282;23383;-76
2022/03/08 00:33:33;;;;;;;82.70;32.30;;;;;;;-3.60;73.03;99232.41;107670;1284;24312;-76
2022/03/08 00:36:00;;;;;;;77.50;33.80;;;;;;;-3.56;73.18;99234.95;107674;1284;22717;-76
2022/03/08 00:38:27;;;;;;;67.80;31.00;;;;;;;-3.52;73.41;99235.99;107681;1282;22566;-76
2022/03/08 00:40:54;;;;;;;70.80;27.80;;;;;;;-3.49;74.07;99236.99;108013;1282;22552;-76
2022/03/08 00:43:21;;;;;;;67.50;27.60;;;;;;;-3.49;74.25;99234.27;107710;1284;22624;-76
2022/03/08 00:45:48;;;;;;;66.80;28.30;;;;;;;-3.46;74.15;99231.73;107653;1282;25536;-76
2022/03/08 00:48:15;;;;;;;65.00;28.20;;;;;;;-3.45;74.07;99231.05;107647;1284;24092;-76
2022/03/08 00:50:43;;;;;;;62.60;27.60;;;;;;;-3.46;73.92;99228.14;107671;1283;22570;-76
2022/03/08 00:53:10;;;;;;;82.70;32.00;;;;;;;-3.47;74.11;99227.12;107702;1284;22591;-77
2022/03/08 00:55:37;;;;;;;76.50;31.30;;;;;;;-3.49;73.93;99228.48;107754;1282;22613;-76
2022/03/08 00:58:06;;;;;;;78.30;33.20;;;;;;;-3.52;73.79;99225.77;107771;1282;22736;-76
2022/03/08 01:00:35;;;;;;;86.20;35.10;;;;;;;-3.48;73.48;99225.42;108002;1284;22564;-76
2022/03/08 01:03:02;;;;;;;81.60;34.80;;;;;;;-3.46;73.60;99227.80;107867;1284;23133;-75
2022/03/08 01:05:30;;;;;;;73.50;30.70;;;;;;;-3.44;74.02;99224.40;107734;1282;22636;-76
2022/03/08 01:07:58;;;;;;;75.40;30.90;;;;;;;-3.44;74.30;99225.44;107702;1284;22553;-76
2022/03/08 01:10:26;;;;;;;71.30;29.60;;;;;;;-3.45;74.46;99223.39;107728;1284;22547;-77
2022/03/08 01:12:55;;;;;;;77.20;31.10;;;;;;;-3.46;74.64;99224.92;107738;1282;22565;-76
2022/03/08 01:15:24;;;;;;;85.60;35.20;;;;;;;-3.47;74.20;99222.86;107744;1284;22557;-76
2022/03/08 01:17:53;;;;;;;101.70;37.80;;;;;;;-3.47;74.14;99224.40;108217;1282;22647;-76
2022/03/08 01:20:21;;;;;;;86.00;33.90;;;;;;;-3.48;73.96;99223.03;107724;1282;22557;-77
2022/03/08 01:22:49;;;;;;;80.60;33.00;;;;;;;-3.45;73.74;99223.55;108096;1284;22541;-76
2022/03/08 01:25:18;;;;;;;77.80;33.40;;;;;;;-3.43;74.08;99223.39;107752;1284;22561;-77
2022/03/08 01:27:45;;;;;;;66.70;27.10;;;;;;;-3.42;74.34;99228.84;107737;1284;22543;-76
2022/03/08 01:30:14;;;;;;;67.00;27.40;;;;;;;-3.42;74.67;99226.29;107733;1283;22595;-75
2022/03/08 01:32:42;;;;;;;64.90;27.50;;;;;;;-3.44;74.84;99229.52;107599;1284;22611;-76
2022/03/08 01:35:09;;;;;;;64.40;25.60;;;;;;;-3.46;74.28;99232.41;107652;1284;22572;-76
2022/03/08 01:37:37;;;;;;;62.40;27.80;;;;;;;-3.47;74.15;99233.76;107703;1284;22603;-77
2022/03/08 01:40:06;;;;;;;66.40;28.40;;;;;;;-3.50;74.17;99229.69;107641;1284;22780;-79
2022/03/08 01:42:34;;;;;;;69.20;26.50;;;;;;;-3.53;73.69;99227.30;107622;1284;22751;-76
2022/03/08 01:45:03;;;;;;;56.60;25.20;;;;;;;-3.56;74.17;99232.23;107265;1284;489003;-76
2022/03/08 01:47:30;;;;;;;69.20;27.20;;;;;;;-3.58;73.68;99230.01;107650;1283;22558;-76
2022/03/08 01:49:57;;;;;;;64.30;27.70;;;;;;;-3.57;73.63;99230.35;107603;1284;22866;-76
2022/03/08 01:52:25;;;;;;;58.80;26.40;;;;;;;-3.55;73.73;99232.39;107649;1284;22671;-77
2022/03/08 01:54:53;;;;;;;56.60;24.90;;;;;;;-3.56;74.21;99231.71;107629;1284;22619;-76
2022/03/08 01:57:23;;;;;;;58.70;26.30;;;;;;;-3.59;74.77;99230.54;107641;1284;22561;-77
2022/03/08 01:59:53;;;;;;;68.70;29.70;;;;;;;-3.62;74.68;99228.83;107642;1284;22541;-76
2022/03/08 02:02:21;;;;;;;95.60;37.70;;;;;;;-3.64;74.53;99228.13;107625;1284;22934;-76
2022/03/08 02:04:48;;;;;;;100.20;40.20;;;;;;;-3.66;74.50;99228.65;107667;1284;22770;-76
2022/03/08 02:07:16;;;;;;;90.50;38.30;;;;;;;-3.68;74.54;99228.14;107641;1284;22649;-76
2022/03/08 02:09:43;;;;;;;79.20;34.30;;;;;;;-3.71;74.07;99223.37;107645;1284;22606;-77
2022/03/08 02:12:10;;;;;;;84.70;36.80;;;;;;;-3.73;74.18;99220.13;107640;1283;22582;-79
2022/03/08 02:14:37;;;;;;;109.20;45.70;;;;;;;-3.80;74.47;99218.93;107607;1284;24252;-76
2022/03/08 02:17:05;;;;;;;119.50;50.80;;;;;;;-3.90;74.92;99217.04;107621;1284;26751;-76
2022/03/08 02:19:32;;;;;;;129.10;49.00;;;;;;;-3.99;74.88;99216.68;107638;1284;22538;-76
2022/03/08 02:21:59;;;;;;;119.40;49.20;;;;;;;-4.12;74.54;99215.97;107639;1284;23066;-76
2022/03/08 02:24:26;;;;;;;117.20;45.60;;;;;;;-4.24;74.31;99212.20;107628;1284;22736;-77
2022/03/08 02:26:54;;;;;;;113.50;43.10;;;;;;;-4.31;74.28;99214.55;107461;1284;25271;-76
2022/03/08 02:29:21;;;;;;;94.60;39.40;;;;;;;-4.36;74.36;99218.09;107662;1284;23180;-77
2022/03/08 02:31:48;;;;;;;91.70;37.00;;;;;;;-4.38;74.31;99219.62;107700;1283;22619;-76
2022/03/08 02:34:15;;;;;;;68.50;28.40;;;;;;;-4.39;73.98;99222.17;107778;1282;22541;-76
2022/03/08 02:37:05;;;;;;;72.00;29.70;;;;;;;-4.35;74.03;99224.23;107743;1282;24368;-76
2022/03/08 02:39:32;;;;;;;56.30;27.00;;;;;;;-4.30;74.17;99225.27;107712;1282;22570;-76
2022/03/08 02:42:00;;;;;;;51.10;23.10;;;;;;;-4.28;74.56;99227.64;107734;1283;22583;-76
2022/03/08 02:44:27;;;;;;;79.40;32.00;;;;;;;-4.28;74.92;99220.33;107766;1282;22540;-76
2022/03/08 02:46:54;;;;;;;74.30;30.80;;;;;;;-4.32;74.74;99223.73;107773;1282;22702;-76
2022/03/08 02:49:22;;;;;;;78.20;33.10;;;;;;;-4.42;74.80;99227.94;107740;1282;22627;-77
2022/03/08 02:51:49;;;;;;;81.60;34.00;;;;;;;-4.50;74.61;99225.36;108179;1282;22601;-76
2022/03/08 02:54:16;;;;;;;86.30;34.80;;;;;;;-4.60;74.33;99225.48;107765;1283;22634;-77
2022/03/08 02:56:43;;;;;;;79.00;33.40;;;;;;;-4.67;74.34;99221.88;107759;1282;23442;-76
2022/03/08 02:59:10;;;;;;;88.40;35.20;;;;;;;-4.71;74.29;99222.54;107882;1282;25257;-85
2022/03/08 03:01:37;;;;;;;90.60;38.10;;;;;;;-4.74;74.04;99220.65;108027;1282;22553;-77
2022/03/08 03:04:04;;;;;;;110.80;44.70;;;;;;;-4.77;74.12;99219.61;108018;1282;25258;-76
2022/03/08 03:06:32;;;;;;;104.10;45.90;;;;;;;-4.83;74.39;99222.13;108026;1282;22556;-76
2022/03/08 03:08:59;;;;;;;95.30;39.40;;;;;;;-4.90;74.81;99223.95;108026;1282;22573;-77
2022/03/08 03:11:26;;;;;;;106.60;42.30;;;;;;;-4.96;74.97;99226.14;108035;1282;22778;-76
2022/03/08 03:13:53;;;;;;;94.70;40.60;;;;;;;-5.01;74.82;99226.10;108036;1282;22538;-75
2022/03/08 03:16:20;;;;;;;96.70;39.90;;;;;;;-5.06;74.74;99233.37;108009;1282;22636;-76
2022/03/08 03:18:47;;;;;;;103.80;41.60;;;;;;;-5.10;74.60;99232.84;108015;1282;22642;-76
2022/03/08 03:21:14;;;;;;;86.90;34.40;;;;;;;-5.13;74.14;99231.46;108031;1282;22556;-76
2022/03/08 03:23:41;;;;;;;73.70;30.80;;;;;;;-5.15;73.87;99231.10;108018;1282;24277;-79
2022/03/08 03:26:08;;;;;;;64.40;28.60;;;;;;;-5.15;73.78;99234.15;108021;1282;22607;-76
2022/03/08 03:28:35;;;;;;;69.60;29.30;;;;;;;-5.11;73.73;99238.43;108022;1282;22629;-77
2022/03/08 03:31:02;;;;;;;70.30;30.40;;;;;;;-5.07;74.04;99237.27;108001;1282;23018;-76
2022/03/08 03:33:29;;;;;;;61.00;24.40;;;;;;;-5.04;74.52;99235.94;108020;1282;22639;-76
2022/03/08 03:35:56;;;;;;;50.20;23.70;;;;;;;-5.04;74.88;99235.77;108005;1282;23022;-76
2022/03/08 03:38:23;;;;;;;52.10;22.50;;;;;;;-5.02;75.00;99232.38;107984;1282;23978;-76
2022/03/08 03:40:50;;;;;;;52.70;23.90;;;;;;;-4.99;74.92;99231.70;108014;1282;22575;-76
2022/03/08 03:43:17;;;;;;;50.20;21.10;;;;;;;-4.98;74.91;99234.95;108011;1282;22650;-77
2022/03/08 03:45:44;;;;;;;45.10;20.00;;;;;;;-4.97;74.65;99237.51;108014;1282;22582;-77
2022/03/08 03:48:11;;;;;;;48.30;21.10;;;;;;;-4.99;74.51;99238.85;108027;1282;22623;-76
2022/03/08 03:50:38;;;;;;;56.10;23.30;;;;;;;-5.02;74.29;99241.56;108023;1282;22568;-82
2022/03/08 03:53:05;;;;;;;62.80;27.20;;;;;;;-5.00;74.02;99243.77;108031;1282;25381;-78
2022/03/08 03:55:33;;;;;;;56.40;25.90;;;;;;;-4.98;74.21;99243.96;108003;1282;22560;-82
2022/03/08 03:58:00;;;;;;;72.80;29.80;;;;;;;-4.98;74.96;99250.40;108000;1282;22558;-78
2022/03/08 04:00:27;;;;;;;69.40;29.90;;;;;;;-5.03;75.02;99248.34;107983;1282;22535;-78
2022/03/08 04:02:54;;;;;;;63.70;28.20;;;;;;;-5.08;74.79;99252.04;108004;1282;22563;-78
2022/03/08 04:05:21;;;;;;;63.30;27.60;;;;;;;-5.11;74.75;99250.33;108001;1282;22604;-77
2022/03/08 04:07:48;;;;;;;70.80;31.70;;;;;;;-5.14;74.62;99255.73;107987;1282;22557;-79
2022/03/08 04:10:16;;;;;;;68.50;30.20;;;;;;;-5.19;74.30;99256.70;108032;1282;24317;-78
2022/03/08 04:12:43;;;;;;;71.90;30.50;;;;;;;-5.25;74.47;99254.12;108007;1282;26506;-77
2022/03/08 04:15:11;;;;;;;70.20;32.00;;;;;;;-5.28;74.45;99252.58;107997;1282;22549;-77
2022/03/08 04:17:38;;;;;;;73.30;32.00;;;;;;;-5.30;74.23;99257.50;108016;1282;26514;-79
2022/03/08 04:20:07;;;;;;;75.20;35.90;;;;;;;-5.25;74.08;99261.41;108050;1282;22756;-78
2022/03/08 04:22:34;;;;;;;73.80;34.50;;;;;;;-5.19;74.72;99265.55;107943;1282;22541;-78
2022/03/08 04:25:02;;;;;;;69.50;29.70;;;;;;;-5.15;75.11;99270.67;108071;1282;22567;-78
2022/03/08 04:27:32;;;;;;;76.40;32.10;;;;;;;-5.14;75.58;99268.98;108042;1282;22569;-85
2022/03/08 04:29:59;;;;;;;69.40;30.90;;;;;;;-5.12;75.59;99268.84;107976;1282;22633;-77
2022/03/08 04:32:26;;;;;;;75.50;28.30;;;;;;;-5.05;75.59;99268.54;108024;1282;22593;-80
2022/03/08 04:34:53;;;;;;;60.40;24.70;;;;;;;-4.99;75.53;99260.43;108028;1282;22538;-77
2022/03/08 04:37:20;;;;;;;71.70;33.10;;;;;;;-4.89;75.34;99262.53;107977;1282;24256;-85
2022/03/08 04:39:47;;;;;;;70.70;31.50;;;;;;;-4.74;75.27;99269.92;108007;1282;22547;-77
2022/03/08 04:42:14;;;;;;;62.40;30.50;;;;;;;-4.62;75.55;99275.77;107998;1282;22634;-77
2022/03/08 04:44:41;;;;;;;52.80;22.30;;;;;;;-4.52;76.02;99278.55;108002;1282;22499;-82
2022/03/08 04:47:08;;;;;;;46.50;21.40;;;;;;;-4.44;76.45;99274.00;107991;1282;22553;-79
2022/03/08 04:49:35;;;;;;;39.50;17.20;;;;;;;-4.36;76.66;99270.80;108003;1282;22570;-78
2022/03/08 04:52:02;;;;;;;36.40;17.40;;;;;;;-4.28;76.82;99270.86;108048;1282;22654;-78
2022/03/08 04:54:29;;;;;;;39.40;18.40;;;;;;;-4.20;76.57;99275.98;108003;1282;24333;-81
2022/03/08 04:56:56;;;;;;;45.80;18.20;;;;;;;-4.15;76.44;99278.91;107975;1282;22686;-77
2022/03/08 04:59:23;;;;;;;44.20;21.00;;;;;;;-4.10;76.25;99282.99;107966;1282;22557;-77
2022/03/08 05:01:50;;;;;;;44.60;22.20;;;;;;;-4.02;75.79;99284.21;107970;1282;22645;-77
2022/03/08 05:04:17;;;;;;;51.30;24.10;;;;;;;-3.95;76.15;99281.52;107965;1282;25928;-76
2022/03/08 05:06:44;;;;;;;54.00;21.20;;;;;;;-3.91;76.61;99281.02;107946;1282;22629;-75
2022/03/08 05:09:11;;;;;;;49.20;22.30;;;;;;;-3.90;76.95;99280.34;108018;1282;24278;-77
2022/03/08 05:11:39;;;;;;;45.80;20.80;;;;;;;-3.88;76.88;99285.63;107988;1282;22551;-75
2022/03/08 05:14:06;;;;;;;47.80;21.70;;;;;;;-3.86;76.45;99281.73;107920;1282;22570;-79
2022/03/08 05:16:33;;;;;;;48.20;21.30;;;;;;;-3.86;76.37;99286.31;107928;1280;22657;-76
2022/03/08 05:19:00;;;;;;;47.00;21.90;;;;;;;-3.87;76.09;99292.77;107962;1281;22715;-78
2022/03/08 05:21:27;;;;;;;55.80;22.50;;;;;;;-3.87;75.99;99292.61;107950;1282;22569;-76
2022/03/08 05:23:54;;;;;;;54.40;25.80;;;;;;;-3.83;76.08;99295.16;107947;1282;22543;-76
2022/03/08 05:26:21;;;;;;;58.30;26.80;;;;;;;-3.79;76.22;99293.14;107933;1281;22560;-76
2022/03/08 05:28:48;;;;;;;50.60;20.90;;;;;;;-3.75;76.59;99292.29;107955;1282;22715;-77
2022/03/08 05:31:15;;;;;;;43.20;21.90;;;;;;;-3.74;76.73;99296.03;107622;1282;24265;-76
2022/03/08 05:33:42;;;;;;;47.90;21.50;;;;;;;-3.72;76.99;99297.23;107634;1282;26606;-76
2022/03/08 05:36:10;;;;;;;45.40;20.90;;;;;;;-3.68;76.62;99300.32;107617;1282;26612;-76
2022/03/08 05:38:37;;;;;;;41.30;20.30;;;;;;;-3.64;76.64;99304.23;107607;1282;22576;-77
2022/03/08 05:41:04;;;;;;;35.00;17.30;;;;;;;-3.62;76.54;99305.60;107643;1282;22561;-76
2022/03/08 05:43:31;;;;;;;42.60;20.40;;;;;;;-3.58;76.35;99305.45;107644;1282;22774;-77
2022/03/08 05:45:57;;;;;;;44.10;22.10;;;;;;;-3.49;76.38;99305.96;107642;1282;22627;-76
2022/03/08 05:48:24;;;;;;;49.70;22.90;;;;;;;-3.40;76.30;99311.77;107559;1282;22737;-77
2022/03/08 05:50:51;;;;;;;39.00;19.90;;;;;;;-3.30;76.81;99316.89;107652;1282;22560;-77
2022/03/08 05:53:18;;;;;;;73.60;26.20;;;;;;;-3.25;77.16;99320.48;107675;1282;22567;-77
2022/03/08 05:55:45;;;;;;;97.50;35.90;;;;;;;-3.19;77.26;99324.23;107668;1282;22585;-77
2022/03/08 05:58:12;;;;;;;66.60;29.50;;;;;;;-3.12;77.05;99322.20;107645;1281;25324;-77
2022/03/08 06:00:39;;;;;;;57.30;28.40;;;;;;;-3.06;77.08;99321.36;107647;1282;22631;-77
2022/03/08 06:03:07;;;;;;;64.10;28.90;;;;;;;-3.00;77.05;99321.52;107621;1282;22734;-77
2022/03/08 06:05:35;;;;;;;58.30;30.50;;;;;;;-2.93;76.86;99326.29;107661;1282;22550;-77
2022/03/08 06:08:04;;;;;;;61.30;32.50;;;;;;;-2.81;76.77;99324.41;107692;1282;25428;-77
2022/03/08 06:10:32;;;;;;;57.80;30.90;;;;;;;-2.70;77.02;99329.85;107686;1282;24238;-77
2022/03/08 06:13:00;;;;;;;46.30;23.50;;;;;;;-2.60;77.61;99328.65;107648;1282;22553;-77
2022/03/08 06:15:27;;;;;;;57.70;28.30;;;;;;;-2.53;77.79;99328.80;107671;1282;23058;-76
2022/03/08 06:17:54;;;;;;;53.90;27.60;;;;;;;-2.44;77.51;99331.88;107646;1282;23191;-77
2022/03/08 06:20:21;;;;;;;50.70;25.60;;;;;;;-2.35;77.50;99329.63;107633;1282;22625;-77
2022/03/08 06:22:48;;;;;;;54.60;26.50;;;;;;;-2.25;77.41;99330.96;107662;1282;22544;-77
2022/03/08 06:25:15;;;;;;;53.20;27.90;;;;;;;-2.18;77.12;99334.87;107615;1282;23088;-77
2022/03/08 06:27:42;;;;;;;55.40;30.20;;;;;;;-2.09;77.19;99336.04;107653;1282;22750;-77
2022/03/08 06:30:10;;;;;;;59.00;32.20;;;;;;;-2.00;77.19;99334.97;107668;1281;22573;-77
2022/03/08 06:32:37;;;;;;;51.70;26.90;;;;;;;-1.87;77.59;99343.12;107874;1282;22642;-77
2022/03/08 06:35:05;;;;;;;57.10;30.00;;;;;;;-1.79;77.89;99343.77;107838;1282;22568;-76
2022/03/08 06:37:33;;;;;;;59.50;31.60;;;;;;;-1.70;77.80;99351.25;108159;1281;22703;-76
2022/03/08 06:40:01;;;;;;;73.50;33.70;;;;;;;-1.61;77.73;99348.12;107811;1282;23299;-76
2022/03/08 06:42:28;;;;;;;69.70;32.00;;;;;;;-1.54;77.53;99355.78;107801;1282;22585;-85
2022/03/08 06:44:55;;;;;;;67.00;32.10;;;;;;;-1.46;77.28;99356.77;107828;1282;22564;-80
2022/03/08 06:47:22;;;;;;;65.60;32.70;;;;;;;-1.40;77.07;99358.95;108104;1282;23364;-80
2022/03/08 06:49:49;;;;;;;66.90;33.30;;;;;;;-1.30;76.98;99365.73;107830;1282;23230;-76
2022/03/08 06:52:16;;;;;;;62.80;30.10;;;;;;;-1.23;77.14;99367.39;107807;1282;22531;-77
2022/03/08 06:54:43;;;;;;;48.50;26.10;;;;;;;-1.13;77.72;99368.17;107828;1282;23278;-76
2022/03/08 06:57:10;;;;;;;50.90;26.00;;;;;;;-1.07;77.77;99371.04;107874;1281;22538;-76
2022/03/08 06:59:37;;;;;;;69.60;30.90;;;;;;;-1.03;77.65;99371.36;107833;1282;22552;-76
2022/03/08 07:02:05;;;;;;;62.30;29.90;;;;;;;-0.94;77.39;99367.88;107846;1282;24269;-76
2022/03/08 07:04:32;;;;;;;59.50;27.40;;;;;;;-0.85;77.12;99358.75;107670;1282;22577;-76
2022/03/08 07:06:59;;;;;;;53.40;26.10;;;;;;;-0.81;76.87;99353.92;107838;1282;24230;-78
2022/03/08 07:09:26;;;;;;;45.70;26.10;;;;;;;-0.74;76.64;99349.23;107878;1282;22634;-76
2022/03/08 07:11:53;;;;;;;43.90;23.20;;;;;;;-0.64;76.82;99346.42;107862;1282;25340;-77
2022/03/08 07:14:20;;;;;;;42.60;22.50;;;;;;;-0.58;77.19;99348.42;107838;1282;22762;-77
2022/03/08 07:16:48;;;;;;;41.40;22.70;;;;;;;-0.56;77.51;99351.83;107878;1282;22645;-76
2022/03/08 07:19:16;;;;;;;41.50;21.90;;;;;;;-0.50;77.39;99353.83;107933;1282;22742;-76
2022/03/08 07:21:47;;;;;;;49.50;24.90;;;;;;;-0.46;77.08;99359.08;107947;1282;22597;-75
2022/03/08 07:24:15;;;;;;;49.10;23.20;;;;;;;-0.44;76.86;99362.15;107914;1282;22540;-77
2022/03/08 07:26:42;;;;;;;43.90;21.90;;;;;;;-0.42;76.53;99357.34;107869;1281;22546;-79
2022/03/08 07:29:09;;;;;;;47.40;22.10;;;;;;;-0.43;76.46;99353.75;107802;1282;22538;-76
2022/03/08 07:31:36;;;;;;;39.00;20.20;;;;;;;-0.36;76.21;99355.75;107703;1282;23776;-78
2022/03/08 07:34:04;;;;;;;42.00;21.20;;;;;;;-0.32;76.10;99354.67;107644;1281;22550;-76
2022/03/08 07:36:31;;;;;;;50.00;23.90;;;;;;;-0.23;76.35;99355.61;107597;1282;22761;-76
2022/03/08 07:38:58;;;;;;;140.00;85.30;;;;;;;-0.14;76.74;99359.80;107595;1282;22565;-83
2022/03/08 07:41:25;;;;;;;46.10;22.20;;;;;;;-0.06;76.68;99358.69;107596;1282;22575;-75
2022/03/08 07:43:52;;;;;;;43.60;22.30;;;;;;;-0.03;76.27;99364.30;107640;1280;22578;-74
2022/03/08 07:46:19;;;;;;;39.80;20.30;;;;;;;0.01;76.01;99364.08;107658;1282;22660;-76
2022/03/08 07:48:46;;;;;;;36.90;19.30;;;;;;;0.09;75.66;99366.73;107698;1282;22908;-75
2022/03/08 07:51:13;;;;;;;40.30;20.70;;;;;;;0.15;75.12;99367.20;107644;1282;22601;-75
2022/03/08 07:53:40;;;;;;;54.00;27.30;;;;;;;0.14;75.17;99365.48;107472;1282;22688;-76
2022/03/08 07:56:07;;;;;;;42.50;22.20;;;;;;;0.20;74.95;99364.05;107630;1282;24358;-76
2022/03/08 07:58:37;;;;;;;43.50;21.10;;;;;;;0.27;74.86;99362.06;107633;1282;22562;-76
2022/03/08 08:01:04;;;;;;;41.00;20.60;;;;;;;0.38;74.90;99368.27;107639;1282;22697;-76
2022/03/08 08:03:32;;;;;;;50.90;24.40;;;;;;;0.50;75.18;99368.30;107600;1282;22743;-76
2022/03/08 08:06:01;;;;;;;45.70;22.80;;;;;;;0.62;75.79;99370.70;107593;1282;22531;-76
2022/03/08 08:08:28;;;;;;;46.80;23.80;;;;;;;0.66;75.71;99370.30;107620;1282;23312;-75
2022/03/08 08:10:55;;;;;;;50.70;26.80;;;;;;;0.70;75.41;99371.97;107636;1282;23278;-74
2022/03/08 08:13:22;;;;;;;50.50;27.00;;;;;;;0.75;75.28;99374.96;107629;1282;24280;-81
2022/03/08 08:15:49;;;;;;;61.60;29.60;;;;;;;0.80;74.88;99380.59;107604;1282;22709;-76
2022/03/08 08:18:16;;;;;;;51.30;24.70;;;;;;;0.82;74.63;99379.16;107583;1282;24029;-77
2022/03/08 08:20:43;;;;;;;48.20;25.60;;;;;;;0.89;74.46;99374.79;107622;1281;22606;-74
2022/03/08 08:23:10;;;;;;;49.10;24.90;;;;;;;0.91;74.26;99372.17;107623;1282;25229;-76
2022/03/08 08:25:37;;;;;;;46.80;23.00;;;;;;;0.95;74.36;99371.60;107665;1282;22637;-75
2022/03/08 08:28:06;;;;;;;46.10;22.60;;;;;;;1.12;74.32;99374.27;107634;1282;25344;-78
2022/03/08 08:30:33;;;;;;;42.40;19.00;;;;;;;1.26;74.79;99374.05;107667;1281;22684;-85
2022/03/08 08:33:01;;;;;;;40.10;20.90;;;;;;;1.34;74.70;99378.21;107569;1282;22649;-76
2022/03/08 08:35:28;;;;;;;37.70;18.00;;;;;;;1.43;74.45;99383.89;107616;1282;22563;-78
2022/03/08 08:37:55;;;;;;;39.90;20.80;;;;;;;1.50;73.79;99383.96;107649;1282;22595;-76
2022/03/08 08:40:22;;;;;;;43.70;21.30;;;;;;;1.53;73.35;99382.70;107667;1282;22627;-74
2022/03/08 08:42:49;;;;;;;40.70;22.00;;;;;;;1.63;73.40;99385.79;107643;1282;22628;-81
2022/03/08 08:45:16;;;;;;;33.80;17.40;;;;;;;1.74;72.95;99388.86;107668;1282;26083;-75
2022/03/08 08:47:43;;;;;;;37.00;19.20;;;;;;;1.77;71.99;99387.61;107669;1282;22567;-77
2022/03/08 08:50:10;;;;;;;51.90;22.10;;;;;;;1.74;71.79;99385.59;107654;1282;26505;-82
2022/03/08 08:52:38;;;;;;;43.00;19.40;;;;;;;1.78;71.88;99387.75;107663;1282;23102;-75
2022/03/08 08:55:05;;;;;;;29.60;13.70;;;;;;;1.82;70.90;99396.61;107681;1282;22595;-75
2022/03/08 08:57:33;;;;;;;33.40;14.80;;;;;;;1.86;70.17;99398.44;107632;1281;22594;-76
2022/03/08 09:00:00;;;;;;;30.60;15.80;;;;;;;1.85;70.20;99392.61;107602;1282;23517;-76
2022/03/08 09:02:27;;;;;;;33.50;17.90;;;;;;;1.89;70.09;99394.94;107625;1282;22624;-75
2022/03/08 09:04:54;;;;;;;23.30;13.30;;;;;;;1.92;69.62;99400.21;107638;1282;22614;-85
2022/03/08 09:07:21;;;;;;;21.30;11.80;;;;;;;1.95;69.08;99404.13;107613;1281;24239;-75
2022/03/08 09:09:49;;;;;;;16.60;9.90;;;;;;;1.93;68.74;99405.34;107590;1282;22567;-80
2022/03/08 09:12:16;;;;;;;19.10;9.60;;;;;;;1.92;68.26;99410.34;107692;1282;22586;-77
2022/03/08 09:14:43;;;;;;;14.00;7.90;;;;;;;1.98;67.59;99408.69;107649;1281;22660;-79
2022/03/08 09:17:10;;;;;;;17.00;8.60;;;;;;;1.95;67.23;99416.82;107634;1282;22719;-76
2022/03/08 09:19:37;;;;;;;13.10;7.40;;;;;;;1.98;67.70;99418.98;107607;1282;22553;-78
2022/03/08 09:22:04;;;;;;;18.60;8.40;;;;;;;2.01;68.00;99417.41;107633;1282;22665;-75
2022/03/08 09:24:35;;;;;;;19.60;9.50;;;;;;;2.08;67.26;99416.76;107617;1282;22620;-76
2022/03/08 09:27:03;;;;;;;28.50;10.70;;;;;;;2.12;67.01;99418.75;107633;1282;22541;-76
2022/03/08 09:29:30;;;;;;;27.70;13.20;;;;;;;2.17;64.22;99409.88;107684;1282;22547;-76
2022/03/08 09:31:57;;;;;;;15.20;8.70;;;;;;;2.27;65.65;99410.89;107914;1282;22633;-81
2022/03/08 09:34:24;;;;;;;18.70;8.40;;;;;;;2.38;65.16;99411.19;107895;1281;23933;-76
2022/03/08 09:36:51;;;;;;;25.50;13.90;;;;;;;2.51;65.39;99411.10;107929;1282;22544;-77
2022/03/08 09:39:19;;;;;;;19.90;9.00;;;;;;;2.61;64.85;99412.27;107898;1282;25223;-84
2022/03/08 09:41:51;;;;;;;13.70;6.30;;;;;;;2.76;64.17;99413.87;107926;1282;22636;-82
2022/03/08 09:44:19;;;;;;;15.70;7.10;;;;;;;2.76;63.96;99411.10;107925;1282;22544;-76
2022/03/08 09:46:46;;;;;;;14.20;6.40;;;;;;;2.80;64.03;99411.87;107941;1282;22680;-75
2022/03/08 09:49:13;;;;;;;14.70;6.70;;;;;;;2.84;63.61;99412.14;107919;1282;22550;-75
2022/03/08 09:51:40;;;;;;;14.50;7.00;;;;;;;2.80;63.36;99416.50;107914;1282;22553;-76
2022/03/08 09:54:07;;;;;;;13.70;7.10;;;;;;;2.72;62.90;99417.36;107793;1282;22659;-76
2022/03/08 09:56:35;;;;;;;14.90;7.00;;;;;;;2.64;62.21;99418.39;107623;1282;22564;-76
2022/03/08 09:59:03;;;;;;;12.50;6.80;;;;;;;2.67;62.59;99418.52;107624;1282;22569;-78
2022/03/08 10:01:31;;;;;;;16.30;8.00;;;;;;;2.69;62.70;99417.60;107629;1282;25260;-76
2022/03/08 10:04:00;;;;;;;15.60;7.90;;;;;;;2.76;62.52;99412.30;107614;1282;22663;-75
2022/03/08 10:06:42;;;;;;;13.30;7.70;;;;;;;2.82;62.73;99406.16;107661;1282;22560;-75
2022/03/08 10:09:14;;;;;;;14.20;7.80;;;;;;;2.93;62.82;99406.08;107641;1282;22700;-76
2022/03/08 10:11:41;;;;;;;14.20;7.10;;;;;;;3.11;62.80;99407.73;107667;1282;22582;-77
2022/03/08 10:14:14;;;;;;;14.10;7.00;;;;;;;3.17;62.58;99403.82;107579;1282;22699;-76
2022/03/08 10:16:42;;;;;;;13.10;7.00;;;;;;;3.30;62.53;99398.87;107613;1282;22560;-75
2022/03/08 10:19:11;;;;;;;12.30;6.50;;;;;;;3.43;62.41;99395.95;107630;1282;22624;-75
2022/03/08 10:21:41;;;;;;;14.80;7.50;;;;;;;3.61;62.22;99392.41;107665;1282;22540;-77
2022/03/08 10:24:19;;;;;;;14.10;7.50;;;;;;;3.70;61.20;99393.73;107835;1281;24243;-77
2022/03/08 10:26:57;;;;;;;16.00;7.80;;;;;;;3.64;60.88;99391.14;107911;1282;24312;-77
2022/03/08 10:29:33;;;;;;;13.00;7.50;;;;;;;3.60;61.02;99385.92;107953;1282;22543;-77
2022/03/08 10:32:20;;;;;;;13.30;6.20;;;;;;;3.67;61.30;99378.15;107936;1282;22661;-77
2022/03/08 10:34:51;;;;;;;11.80;6.50;;;;;;;3.86;60.54;99374.21;107945;1282;22641;-77
2022/03/08 10:37:20;;;;;;;16.30;7.70;;;;;;;3.84;60.18;99376.52;107923;1282;22644;-76
2022/03/08 10:39:48;;;;;;;21.30;7.60;;;;;;;3.93;60.46;99378.52;107965;1282;22729;-76
2022/03/08 10:42:22;;;;;;;16.90;7.40;;;;;;;3.94;59.82;99376.77;107954;1282;22559;-77
2022/03/08 10:44:50;;;;;;;13.50;6.70;;;;;;;3.99;60.40;99374.73;107840;1282;22575;-77
2022/03/08 10:47:17;;;;;;;11.80;7.00;;;;;;;4.03;60.08;99378.07;107973;1282;22712;-79
2022/03/08 10:49:56;;;;;;;11.10;6.70;;;;;;;4.02;59.66;99374.30;107953;1282;24323;-76
2022/03/08 10:52:35;;;;;;;11.00;6.70;;;;;;;3.94;59.14;99374.86;107943;1281;22626;-76
2022/03/08 10:55:17;;;;;;;13.40;7.90;;;;;;;3.83;59.32;99372.77;107955;1282;22546;-76
2022/03/08 10:57:50;;;;;;;15.40;8.20;;;;;;;3.81;59.80;99372.11;107939;1282;22677;-77
2022/03/08 11:00:20;;;;;;;;;;;;;;;3.79;59.34;99372.33;107983;1282;24270;-76
2022/03/08 11:02:51;;;;;;;11.70;7.00;;;;;;;3.69;59.73;99369.14;107938;1282;22628;-76
2022/03/08 11:05:20;;;;;;;12.20;7.30;;;;;;;3.72;59.52;99371.47;107945;1282;22555;-77
2022/03/08 11:07:48;;;;;;;14.10;7.60;;;;;;;3.75;59.21;99366.40;107959;1282;22557;-75
2022/03/08 11:10:16;;;;;;;11.50;6.20;;;;;;;3.76;59.46;99359.65;107972;1281;22541;-75
2022/03/08 11:12:45;;;;;;;16.60;8.90;;;;;;;3.81;59.92;99357.28;107966;1282;22538;-77
2022/03/08 11:15:14;;;;;;;16.70;8.50;;;;;;;3.94;59.42;99357.80;107927;1282;22646;-76